This is the latest recevied weather packets stored in our database for station/object WB4ROX. If no packets are shown the sender has not sent any weather packets the latest 10 day(s).
| Time | Temp. | Humidity | Pressure | Rain* | Wind** | Luminosity | Snow |
|---|---|---|---|---|---|---|---|
| 1777574026 | 10° C | 64% | 1014.4 hPa | 0 mm | - | 848 W/m² | - |
| 1777573721 | 9.44° C | 64% | 1014.4 hPa | 0 mm | - | 403 W/m² | - |
| 1777573418 | 9.44° C | 64% | 1014.4 hPa | 0 mm | - | 192 W/m² | - |
| 1777573114 | 9.44° C | 63% | 1014.3 hPa | 0 mm | - | 884 W/m² | - |
| 1777572811 | 9.44° C | 66% | 1014 hPa | 0 mm | - | 192 W/m² | - |
| 1777572506 | 9.44° C | 62% | 1014.3 hPa | 0 mm | - | 896 W/m² | - |
| 1777572202 | 8.89° C | 67% | 1014.3 hPa | 0 mm | - | 664 W/m² | - |
| 1777571897 | 8.89° C | 68% | 1014.4 hPa | 0 mm | - | 941 W/m² | - |
| 1777571593 | 8.89° C | 70% | 1014.5 hPa | 0 mm | - | 910 W/m² | - |
| 1777571291 | 8.89° C | 70% | 1014.4 hPa | 0 mm | - | 876 W/m² | - |
| 1777570986 | 9.44° C | 67% | 1014.3 hPa | 0 mm | - | 1007 W/m² | - |
| 1777570682 | 8.89° C | 70% | 1014.4 hPa | 0 mm | - | 1007 W/m² | - |
| 1777570379 | 8.33° C | 74% | 1014.3 hPa | 0 mm | - | 250 W/m² | - |
| 1777570074 | 8.33° C | 76% | 1014.5 hPa | 0 mm | - | 204 W/m² | - |
| 1777569770 | 7.78° C | 74% | 1014.6 hPa | 0 mm | - | 323 W/m² | - |
| 1777569465 | 8.33° C | 72% | 1014.1 hPa | 0 mm | - | 253 W/m² | - |
| 1777569163 | 8.33° C | 77% | 1014.7 hPa | 0 mm | - | 920 W/m² | - |
| 1777568859 | 8.33° C | 74% | 1014.4 hPa | 0 mm | - | 231 W/m² | - |
| 1777568557 | 9.44° C | 70% | 1014.5 hPa | 0 mm | - | 257 W/m² | - |
| 1777568253 | 8.89° C | 69% | 1014.3 hPa | 0 mm | - | 1096 W/m² | - |
| 1777567950 | 8.33° C | 75% | 1014.1 hPa | 0 mm | - | 891 W/m² | - |
| 1777567646 | 8.33° C | 78% | 1014.1 hPa | 0 mm | - | 1001 W/m² | - |
| 1777567344 | 8.33° C | 79% | 1014.4 hPa | 0 mm | - | 1009 W/m² | - |
| 1777567042 | 8.33° C | 79% | 1014.3 hPa | 0 mm | - | 1056 W/m² | - |
| 1777566740 | 8.33° C | 77% | 1014.4 hPa | 0 mm | - | 409 W/m² | - |
* Rain latest hour (hover to see other rain measurements)
** Current wind speed in m/s (hover to see current wind gust speed)